createdAt,value
2023-04-22T00:01:05.486Z,100869.41
2023-04-22T00:03:34.108Z,100868.55
2023-04-22T00:06:03.067Z,100873.64
2023-04-22T00:08:31.354Z,100872.23
2023-04-22T00:11:00.122Z,100873.30
2023-04-22T00:13:28.428Z,100882.31
2023-04-22T00:15:56.768Z,100887.61
2023-04-22T00:18:26.240Z,100887.20
2023-04-22T00:20:55.023Z,100886.66
2023-04-22T00:23:23.191Z,100886.73
2023-04-22T00:25:51.577Z,100888.25
2023-04-22T00:28:20.370Z,100889.96
2023-04-22T00:30:49.982Z,100885.30
2023-04-22T00:33:18.618Z,100887.38
2023-04-22T00:35:47.059Z,100887.11
2023-04-22T00:38:15.754Z,100884.23
2023-04-22T00:40:44.447Z,100884.97
2023-04-22T00:43:16.512Z,100884.13
2023-04-22T00:45:45.402Z,100885.01
2023-04-22T00:48:16.651Z,100883.99
2023-04-22T00:50:45.140Z,100887.98
2023-04-22T00:53:13.643Z,100889.97
2023-04-22T00:55:42.219Z,100891.59
2023-04-22T00:58:11.725Z,100895.84
2023-04-22T01:00:40.101Z,100892.16
2023-04-22T01:03:08.734Z,100896.65
2023-04-22T01:05:37.618Z,100894.38
2023-04-22T01:08:05.984Z,100897.89
2023-04-22T01:10:34.591Z,100893.05
2023-04-22T01:13:03.691Z,100894.52
2023-04-22T01:15:32.720Z,100897.46
2023-04-22T01:18:03.617Z,100893.73
2023-04-22T01:20:32.212Z,100899.47
2023-04-22T01:23:04.441Z,100894.02
2023-04-22T01:25:34.456Z,100899.77
2023-04-22T01:28:03.397Z,100896.33
2023-04-22T01:30:32.835Z,100899.98
2023-04-22T01:33:02.038Z,100899.17
2023-04-22T01:35:37.066Z,100898.00
2023-04-22T01:38:08.408Z,100896.43
2023-04-22T01:40:38.558Z,100896.98
2023-04-22T01:43:07.465Z,100892.30
2023-04-22T01:45:35.876Z,100890.70
2023-04-22T01:48:07.088Z,100896.40
2023-04-22T01:50:35.762Z,100895.44
2023-04-22T01:53:04.332Z,100895.36
2023-04-22T01:55:36.282Z,100894.08
2023-04-22T01:58:05.784Z,100891.53
2023-04-22T02:00:34.199Z,100895.10
2023-04-22T02:03:02.827Z,100891.44
2023-04-22T02:05:31.379Z,100894.38
2023-04-22T02:07:59.863Z,100895.66
2023-04-22T02:10:28.139Z,100891.44
2023-04-22T02:12:56.733Z,100889.73
2023-04-22T02:15:25.233Z,100892.94
2023-04-22T02:17:55.548Z,100893.91
2023-04-22T02:20:24.137Z,100891.55
2023-04-22T02:22:52.724Z,100892.81
2023-04-22T02:25:21.419Z,100893.98
2023-04-22T02:27:52.066Z,100898.27
2023-04-22T02:30:21.559Z,100902.47
2023-04-22T02:32:50.314Z,100906.71
2023-04-22T02:35:18.742Z,100904.09
2023-04-22T02:37:47.336Z,100901.38
2023-04-22T02:40:16.432Z,100900.21
2023-04-22T02:42:44.706Z,100903.30
2023-04-22T02:45:13.406Z,100903.52
2023-04-22T02:47:42.017Z,100902.77
2023-04-22T02:50:10.979Z,100903.27
2023-04-22T02:52:39.385Z,100900.69
2023-04-22T02:55:09.039Z,100907.09
2023-04-22T02:57:37.795Z,100904.85
2023-04-22T03:00:08.178Z,100906.02
2023-04-22T03:02:37.128Z,100907.45
2023-04-22T03:05:16.745Z,100908.20
2023-04-22T03:07:45.771Z,100913.23
2023-04-22T03:10:14.348Z,100916.31
2023-04-22T03:12:42.597Z,100919.45
2023-04-22T03:15:12.026Z,100919.58
2023-04-22T03:17:41.033Z,100918.48
2023-04-22T03:20:12.585Z,100922.34
2023-04-22T03:22:40.964Z,100924.19
2023-04-22T03:25:11.388Z,100925.89
2023-04-22T03:27:41.144Z,100928.87
2023-04-22T03:30:10.229Z,100935.14
2023-04-22T03:32:39.332Z,100936.58
2023-04-22T03:35:21.307Z,100936.45
2023-04-22T03:37:51.229Z,100942.27
2023-04-22T03:40:27.909Z,100941.88
2023-04-22T03:42:56.802Z,100948.42
2023-04-22T03:45:25.855Z,100955.67
2023-04-22T03:48:12.294Z,100955.65
2023-04-22T03:50:44.572Z,100958.46
2023-04-22T03:53:13.378Z,100961.73
2023-04-22T03:55:42.054Z,100964.64
2023-04-22T03:58:11.159Z,100958.64
2023-04-22T04:00:39.950Z,100959.95
2023-04-22T04:03:11.294Z,100960.27
2023-04-22T04:05:40.565Z,100961.29
2023-04-22T04:08:10.423Z,100961.55
2023-04-22T04:10:38.912Z,100962.16
2023-04-22T04:13:07.907Z,100960.13
2023-04-22T04:15:48.154Z,100958.76
2023-04-22T04:18:17.777Z,100961.35
2023-04-22T04:20:46.773Z,100961.27
2023-04-22T04:23:15.165Z,100955.98
2023-04-22T04:25:44.011Z,100956.17
2023-04-22T04:28:14.285Z,100956.48
2023-04-22T04:30:42.887Z,100955.32
2023-04-22T04:33:12.468Z,100960.57
2023-04-22T04:35:43.524Z,100962.27
2023-04-22T04:38:13.238Z,100959.20
2023-04-22T04:40:45.534Z,100961.98
2023-04-22T04:43:21.333Z,100969.36
2023-04-22T04:45:54.059Z,100963.30
2023-04-22T04:48:28.684Z,100965.38
2023-04-22T04:51:02.585Z,100965.70
2023-04-22T04:53:32.822Z,100963.61
2023-04-22T04:56:01.100Z,100964.94
2023-04-22T04:58:30.200Z,100966.73
2023-04-22T05:01:19.405Z,100966.15
2023-04-22T05:03:49.105Z,100965.78
2023-04-22T05:06:19.100Z,100964.89
2023-04-22T05:08:59.349Z,100965.73
2023-04-22T05:11:31.027Z,100964.88
2023-04-22T05:14:03.144Z,100968.48
2023-04-22T05:16:35.491Z,100973.45
2023-04-22T05:19:05.690Z,100972.42
2023-04-22T05:21:34.373Z,100975.45
2023-04-22T05:24:02.858Z,100969.69
2023-04-22T05:26:31.347Z,100975.52
2023-04-22T05:29:00.347Z,100979.39
2023-04-22T05:31:29.438Z,100981.92
2023-04-22T05:33:58.462Z,100984.86
2023-04-22T05:36:30.560Z,100984.06
2023-04-22T05:38:59.919Z,100982.57
2023-04-22T05:41:28.508Z,100988.90
2023-04-22T05:43:56.799Z,100982.02
2023-04-22T05:46:26.564Z,100978.52
2023-04-22T05:48:56.643Z,100980.36
2023-04-22T05:52:00.156Z,100978.38
2023-04-22T05:54:32.495Z,100980.73
2023-04-22T05:57:01.187Z,100974.53
2023-04-22T05:59:29.773Z,100975.56
2023-04-22T06:01:58.591Z,100975.58
2023-04-22T06:04:27.660Z,100968.23
2023-04-22T06:06:56.726Z,100970.73
2023-04-22T06:09:25.976Z,100975.63
2023-04-22T06:11:54.456Z,100978.66
2023-04-22T06:14:22.740Z,100985.83
2023-04-22T06:16:53.279Z,100991.11
2023-04-22T06:19:21.962Z,100991.61
2023-04-22T06:21:50.269Z,100992.57
2023-04-22T06:24:18.737Z,100991.73
2023-04-22T06:26:47.020Z,100993.17
2023-04-22T06:29:15.502Z,100988.49
2023-04-22T06:31:44.656Z,100992.66
2023-04-22T06:34:13.094Z,100990.13
2023-04-22T06:36:41.797Z,100989.54
2023-04-22T06:39:11.396Z,100986.23
2023-04-22T06:41:57.790Z,100987.90
2023-04-22T06:44:44.917Z,100993.93
2023-04-22T06:47:19.645Z,100989.83
2023-04-22T06:50:05.479Z,100990.10
2023-04-22T06:52:40.356Z,100989.71
2023-04-22T06:55:09.712Z,100989.44
2023-04-22T06:57:38.490Z,100993.90
2023-04-22T07:00:11.868Z,100997.81
2023-04-22T07:02:41.412Z,100997.29
2023-04-22T07:05:10.062Z,100996.64
2023-04-22T07:07:38.968Z,100996.58
2023-04-22T07:10:09.207Z,101002.03
2023-04-22T07:12:45.633Z,101002.58
2023-04-22T07:15:14.238Z,101008.28
2023-04-22T07:17:42.676Z,101009.56
2023-04-22T07:20:11.521Z,101008.52
2023-04-22T07:22:39.783Z,101016.77
2023-04-22T07:25:09.017Z,101018.27
2023-04-22T07:27:37.464Z,101023.23
2023-04-22T07:30:08.347Z,101023.00
2023-04-22T07:32:36.930Z,101024.05
2023-04-22T07:35:06.490Z,101023.19
2023-04-22T07:37:35.012Z,101018.63
2023-04-22T07:40:03.708Z,101019.64
2023-04-22T07:42:32.281Z,101018.74
2023-04-22T07:45:00.677Z,101021.24
2023-04-22T07:47:29.624Z,101022.27
2023-04-22T07:49:58.358Z,101023.18
2023-04-22T07:52:27.060Z,101028.55
2023-04-22T07:54:55.636Z,101023.89
2023-04-22T07:57:24.847Z,101028.86
2023-04-22T07:59:53.738Z,101026.91
2023-04-22T08:02:23.348Z,101021.58
2023-04-22T08:04:52.143Z,101022.02
2023-04-22T08:09:52.346Z,101021.95
2023-04-22T08:12:21.520Z,101019.92
2023-04-22T08:14:49.967Z,101017.69
2023-04-22T08:17:22.230Z,101013.39
2023-04-22T08:19:51.056Z,101012.48
2023-04-22T08:22:19.547Z,101014.16
2023-04-22T08:24:47.929Z,101016.43
2023-04-22T08:27:16.202Z,101011.08
2023-04-22T08:29:45.412Z,101014.20
2023-04-22T08:32:13.898Z,101019.16
2023-04-22T08:34:42.484Z,101018.60
2023-04-22T08:37:11.387Z,101018.80
2023-04-22T08:39:47.550Z,101011.61
2023-04-22T08:42:16.567Z,101009.38
2023-04-22T08:44:45.663Z,101009.70
2023-04-22T08:47:16.189Z,101007.82
2023-04-22T08:49:46.565Z,101014.11
2023-04-22T08:52:15.716Z,101010.80
2023-04-22T08:54:44.514Z,101011.98
2023-04-22T08:57:16.629Z,101009.45
2023-04-22T08:59:45.371Z,101012.06
2023-04-22T09:02:20.002Z,101007.04
2023-04-22T09:04:52.497Z,101004.91
2023-04-22T09:07:27.112Z,101006.09
2023-04-22T09:09:56.278Z,100999.48
2023-04-22T09:12:26.546Z,101001.48
2023-04-22T09:14:56.572Z,101005.36
2023-04-22T09:17:38.368Z,100998.81
2023-04-22T09:20:08.938Z,100996.93
2023-04-22T09:22:48.314Z,100995.35
2023-04-22T09:25:27.651Z,100998.13
2023-04-22T09:27:58.704Z,100995.92
2023-04-22T09:30:33.415Z,100993.23
2023-04-22T09:33:03.285Z,100991.04
2023-04-22T09:35:42.472Z,100992.61
2023-04-22T09:38:12.646Z,100992.57
2023-04-22T09:40:44.867Z,100988.74
2023-04-22T09:43:20.069Z,100983.90
2023-04-22T09:45:48.500Z,100985.98
2023-04-22T09:48:19.315Z,100977.82
2023-04-22T09:50:50.174Z,100981.33
2023-04-22T09:53:20.814Z,100985.17
2023-04-22T09:55:51.953Z,100981.02
2023-04-22T09:58:23.835Z,100983.06
2023-04-22T10:00:57.300Z,100979.92
2023-04-22T10:03:25.960Z,100984.38
2023-04-22T10:05:54.186Z,100979.29
2023-04-22T10:08:22.778Z,100979.02
2023-04-22T10:10:50.956Z,100980.46
2023-04-22T10:13:19.355Z,100974.36
2023-04-22T10:15:57.555Z,100967.77
2023-04-22T10:18:28.392Z,100969.31
2023-04-22T10:20:58.015Z,100968.83
2023-04-22T10:23:26.394Z,100967.52
2023-04-22T10:25:56.029Z,100960.55
2023-04-22T10:28:28.481Z,100958.44
2023-04-22T10:30:57.200Z,100956.06
2023-04-22T10:33:29.138Z,100956.21
2023-04-22T10:36:20.206Z,100948.71
2023-04-22T10:38:55.532Z,100948.27
2023-04-22T10:41:31.654Z,100944.50
2023-04-22T10:44:02.897Z,100944.94
2023-04-22T10:49:27.191Z,100926.73
2023-04-22T10:52:01.046Z,100923.65
2023-04-22T10:54:32.125Z,100921.64
2023-04-22T10:57:11.990Z,100922.10
2023-04-22T10:59:52.966Z,100916.14
2023-04-22T11:02:22.951Z,100916.41
2023-04-22T11:04:54.639Z,100917.71
2023-04-22T11:07:27.063Z,100916.09
2023-04-22T11:10:05.571Z,100914.60
2023-04-22T11:12:39.382Z,100906.44
2023-04-22T11:15:16.460Z,100911.18
2023-04-22T11:17:51.167Z,100909.34
2023-04-22T11:20:20.135Z,100909.02
2023-04-22T11:22:53.622Z,100908.54
2023-04-22T11:25:23.389Z,100909.64
2023-04-22T11:27:54.360Z,100904.87
2023-04-22T11:30:25.673Z,100908.95
2023-04-22T11:33:00.057Z,100908.10
2023-04-22T11:35:32.027Z,100906.68
2023-04-22T11:38:03.144Z,100908.00
2023-04-22T11:40:36.004Z,100918.27
2023-04-22T11:43:08.443Z,100921.29
2023-04-22T11:45:39.154Z,100926.65
2023-04-22T11:48:09.962Z,100937.23
2023-04-22T11:50:45.735Z,100946.24
2023-04-22T11:53:19.940Z,100949.31
2023-04-22T11:55:51.349Z,100949.19
2023-04-22T11:58:24.615Z,100956.15
2023-04-22T12:00:53.789Z,100956.59
2023-04-22T12:03:24.876Z,100959.05
2023-04-22T12:05:55.630Z,100955.25
2023-04-22T12:08:32.222Z,100963.91
2023-04-22T12:11:06.022Z,100963.30
2023-04-22T12:13:42.518Z,100961.81
2023-04-22T12:16:18.271Z,100951.77
2023-04-22T12:18:52.792Z,100953.51
2023-04-22T12:21:23.991Z,100945.54
2023-04-22T12:23:55.244Z,100949.45
2023-04-22T12:26:28.370Z,100949.55
2023-04-22T12:29:01.091Z,100949.06
2023-04-22T12:31:29.997Z,100944.02
2023-04-22T12:33:58.588Z,100939.44
2023-04-22T12:36:27.120Z,100934.61
2023-04-22T12:38:55.816Z,100934.42
2023-04-22T12:41:24.706Z,100929.82
2023-04-22T12:43:53.029Z,100928.05
2023-04-22T12:46:21.810Z,100930.45
2023-04-22T12:48:50.578Z,100930.14
2023-04-22T12:51:19.182Z,100933.65
2023-04-22T12:53:47.588Z,100941.86
2023-04-22T12:56:16.245Z,100946.63
2023-04-22T12:58:44.730Z,100955.91
2023-04-22T13:01:13.107Z,100955.46
2023-04-22T13:03:41.923Z,100948.84
2023-04-22T13:06:10.809Z,100949.91
2023-04-22T13:08:39.295Z,100942.02
2023-04-22T13:11:07.571Z,100935.12
2023-04-22T13:13:36.362Z,100928.11
2023-04-22T13:16:05.029Z,100925.15
2023-04-22T13:18:33.634Z,100921.98
2023-04-22T13:21:02.235Z,100923.55
2023-04-22T13:23:31.034Z,100924.59
2023-04-22T13:25:59.724Z,100921.86
2023-04-22T13:28:28.617Z,100926.84
2023-04-22T13:30:57.310Z,100929.27
2023-04-22T13:33:25.909Z,100929.47
2023-04-22T13:35:54.386Z,100933.22
2023-04-22T13:38:22.676Z,100932.88
2023-04-22T13:40:51.664Z,100932.40
2023-04-22T13:43:20.055Z,100932.70
2023-04-22T13:45:49.023Z,100933.12
2023-04-22T13:48:17.336Z,100930.31
2023-04-22T13:50:45.715Z,100924.97
2023-04-22T13:53:14.512Z,100923.20
2023-04-22T13:55:43.509Z,100922.57
2023-04-22T13:58:11.895Z,100919.47
2023-04-22T14:00:40.481Z,100920.02
2023-04-22T14:03:09.616Z,100919.02
2023-04-22T14:05:38.600Z,100922.02
2023-04-22T14:08:06.871Z,100921.16
2023-04-22T14:10:35.659Z,100920.95
2023-04-22T14:13:04.149Z,100921.61
2023-04-22T14:15:32.845Z,100925.52
2023-04-22T14:18:01.283Z,100920.23
2023-04-22T14:20:29.805Z,100915.77
2023-04-22T14:22:58.196Z,100915.77
2023-04-22T14:25:26.790Z,100917.42
2023-04-22T14:27:55.677Z,100914.13
2023-04-22T14:30:24.372Z,100910.23
2023-04-22T14:32:52.906Z,100914.61
2023-04-22T14:35:21.874Z,100913.17
2023-04-22T14:37:50.242Z,100915.41
2023-04-22T14:40:20.278Z,100910.44
2023-04-22T14:42:48.650Z,100912.89
2023-04-22T14:45:19.076Z,100910.95
2023-04-22T14:47:47.507Z,100912.23
2023-04-22T14:50:15.953Z,100908.13
2023-04-22T14:52:44.532Z,100908.36
2023-04-22T14:55:22.577Z,100908.11
2023-04-22T14:57:56.875Z,100909.20
2023-04-22T15:00:26.392Z,100908.89
2023-04-22T15:02:55.410Z,100905.45
2023-04-22T15:05:24.279Z,100902.86
2023-04-22T15:07:53.060Z,100898.16
2023-04-22T15:10:21.756Z,100901.50
2023-04-22T15:12:50.770Z,100896.50
2023-04-22T15:15:19.165Z,100892.78
2023-04-22T15:17:47.772Z,100892.92
2023-04-22T15:20:16.210Z,100896.74
2023-04-22T15:22:45.178Z,100885.04
2023-04-22T15:25:14.035Z,100886.85
2023-04-22T15:27:43.609Z,100889.03
2023-04-22T15:30:12.680Z,100888.90
2023-04-22T15:32:41.673Z,100889.33
2023-04-22T15:35:14.390Z,100884.00
2023-04-22T15:37:42.805Z,100887.67
2023-04-22T15:40:11.480Z,100887.42
2023-04-22T15:42:39.904Z,100888.67
2023-04-22T15:45:08.687Z,100887.55
2023-04-22T15:47:37.536Z,100886.73
2023-04-22T15:50:09.391Z,100884.92
2023-04-22T15:52:38.929Z,100884.90
2023-04-22T15:55:08.392Z,100887.62
2023-04-22T15:57:36.981Z,100887.92
2023-04-22T16:00:12.461Z,100888.11
2023-04-22T16:02:45.476Z,100882.90
2023-04-22T16:05:14.911Z,100888.30
2023-04-22T16:07:43.466Z,100888.22
2023-04-22T16:10:12.263Z,100886.67
2023-04-22T16:12:42.439Z,100889.34
2023-04-22T16:15:12.199Z,100889.68
2023-04-22T16:17:41.312Z,100887.78
2023-04-22T16:20:10.401Z,100891.80
2023-04-22T16:22:38.669Z,100893.13
2023-04-22T16:25:07.885Z,100894.73
2023-04-22T16:27:36.258Z,100896.67
2023-04-22T16:30:05.819Z,100900.00
2023-04-22T16:32:34.180Z,100898.54
2023-04-22T16:35:02.748Z,100898.89
2023-04-22T16:37:31.752Z,100902.45
2023-04-22T16:40:01.307Z,100906.48
2023-04-22T16:42:29.631Z,100908.91
2023-04-22T16:44:58.432Z,100909.80
2023-04-22T16:47:27.571Z,100912.13
2023-04-22T16:49:56.021Z,100909.70
2023-04-22T16:52:24.603Z,100914.84
2023-04-22T16:54:53.093Z,100914.83
2023-04-22T16:57:21.783Z,100919.46
2023-04-22T16:59:49.983Z,100919.18
2023-04-22T17:02:18.399Z,100923.32
2023-04-22T17:04:47.148Z,100930.31
2023-04-22T17:07:15.834Z,100932.20
2023-04-22T17:09:44.376Z,100933.80
2023-04-22T17:12:12.818Z,100935.88
2023-04-22T17:14:41.370Z,100934.60
2023-04-22T17:17:10.076Z,100940.51
2023-04-22T17:19:38.371Z,100941.18
2023-04-22T17:22:06.994Z,100945.60
2023-04-22T17:24:36.034Z,100951.64
2023-04-22T17:27:04.863Z,100953.95
2023-04-22T17:29:33.766Z,100957.64
2023-04-22T17:32:02.249Z,100959.67
2023-04-22T17:34:30.522Z,100962.46
2023-04-22T17:36:58.915Z,100967.39
2023-04-22T17:39:27.597Z,100974.25
2023-04-22T17:41:58.569Z,100980.05
2023-04-22T17:44:27.034Z,100985.57
2023-04-22T17:46:55.554Z,100984.02
2023-04-22T17:49:24.516Z,100988.20
2023-04-22T17:51:54.179Z,100987.52
2023-04-22T17:54:23.397Z,100995.17
2023-04-22T17:56:51.609Z,100997.75
2023-04-22T17:59:19.996Z,100998.42
2023-04-22T18:01:48.619Z,100998.80
2023-04-22T18:04:17.561Z,101002.39
2023-04-22T18:06:46.484Z,101005.70
2023-04-22T18:09:15.067Z,101006.26
2023-04-22T18:11:43.561Z,101010.11
2023-04-22T18:14:11.841Z,101012.27
2023-04-22T18:16:40.629Z,101014.16
2023-04-22T18:19:09.116Z,101016.38
2023-04-22T18:21:41.544Z,101015.52
2023-04-22T18:24:15.103Z,101021.58
2023-04-22T18:26:45.530Z,101022.52
2023-04-22T18:29:13.915Z,101028.58
2023-04-22T18:31:42.318Z,101031.36
2023-04-22T18:34:13.451Z,101031.34
2023-04-22T18:36:41.732Z,101034.23
2023-04-22T18:39:11.047Z,101032.76
2023-04-22T18:41:40.547Z,101042.02
2023-04-22T18:44:09.130Z,101048.78
2023-04-22T18:46:38.142Z,101048.04
2023-04-22T18:49:06.989Z,101050.59
2023-04-22T18:51:35.610Z,101051.13
2023-04-22T18:54:05.414Z,101049.80
2023-04-22T18:56:33.713Z,101048.89
2023-04-22T18:59:01.995Z,101044.52
2023-04-22T19:01:30.301Z,101044.20
2023-04-22T19:04:02.021Z,101048.98
2023-04-22T19:06:30.630Z,101054.11
2023-04-22T19:08:59.115Z,101050.50
2023-04-22T19:11:27.917Z,101049.48
2023-04-22T19:13:57.736Z,101048.92
2023-04-22T19:16:26.689Z,101050.14
2023-04-22T19:18:56.235Z,101048.95
2023-04-22T19:21:25.745Z,101055.08
2023-04-22T19:23:54.030Z,101053.00
2023-04-22T19:26:22.622Z,101050.67
2023-04-22T19:28:51.308Z,101049.81
2023-04-22T19:31:19.999Z,101048.14
2023-04-22T19:33:49.099Z,101047.67
2023-04-22T19:36:17.489Z,101046.48
2023-04-22T19:38:46.065Z,101045.84
2023-04-22T19:41:15.070Z,101049.45
2023-04-22T19:43:43.356Z,101050.35
2023-04-22T19:46:12.592Z,101050.70
2023-04-22T19:48:41.556Z,101049.17
2023-04-22T19:51:11.246Z,101050.94
2023-04-22T19:53:41.409Z,101050.38
2023-04-22T19:56:10.409Z,101050.48
2023-04-22T19:58:39.642Z,101051.13
2023-04-22T20:01:09.179Z,101054.13
2023-04-22T20:03:38.479Z,101056.10
2023-04-22T20:06:07.521Z,101059.83
2023-04-22T20:08:36.688Z,101057.71
2023-04-22T20:11:05.215Z,101061.39
2023-04-22T20:13:34.306Z,101062.61
2023-04-22T20:16:03.864Z,101061.13
2023-04-22T20:18:32.955Z,101062.04
2023-04-22T20:21:01.301Z,101059.63
2023-04-22T20:23:32.657Z,101064.70
2023-04-22T20:26:02.341Z,101063.17
2023-04-22T20:28:52.311Z,101062.86
2023-04-22T20:31:23.202Z,101070.30
2023-04-22T20:33:52.763Z,101071.13
2023-04-22T20:36:24.212Z,101071.56
2023-04-22T20:38:55.093Z,101067.98
2023-04-22T20:41:24.741Z,101073.98
2023-04-22T20:43:53.478Z,101070.59
2023-04-22T20:46:23.435Z,101071.68
2023-04-22T20:48:52.664Z,101068.83
2023-04-22T20:51:21.316Z,101072.48
2023-04-22T20:53:51.189Z,101069.50
2023-04-22T20:56:19.822Z,101067.38
2023-04-22T20:58:48.737Z,101068.61
2023-04-22T21:01:17.748Z,101065.70
2023-04-22T21:03:52.802Z,101067.89
2023-04-22T21:06:22.163Z,101073.23
2023-04-22T21:08:51.068Z,101073.55
2023-04-22T21:11:22.755Z,101070.79
2023-04-22T21:13:52.301Z,101070.89
2023-04-22T21:16:27.584Z,101075.56
2023-04-22T21:19:00.938Z,101076.85
2023-04-22T21:21:34.930Z,101076.97
2023-04-22T21:24:07.706Z,101079.56
2023-04-22T21:26:40.262Z,101080.10
2023-04-22T21:29:08.972Z,101086.63
2023-04-22T21:31:38.121Z,101087.25
2023-04-22T21:34:08.728Z,101087.48
2023-04-22T21:36:37.974Z,101091.13
2023-04-22T21:39:08.474Z,101090.50
2023-04-22T21:41:37.098Z,101091.19
2023-04-22T21:44:05.787Z,101090.70
2023-04-22T21:46:34.599Z,101091.92
2023-04-22T21:49:03.396Z,101093.70
2023-04-22T21:51:32.496Z,101093.52
2023-04-22T21:54:01.170Z,101090.61
2023-04-22T21:56:31.514Z,101091.61
2023-04-22T21:59:00.950Z,101097.98
2023-04-22T22:01:29.245Z,101094.37
2023-04-22T22:03:57.761Z,101093.79
2023-04-22T22:06:27.080Z,101091.95
2023-04-22T22:08:55.780Z,101092.17
2023-04-22T22:11:30.875Z,101093.66
2023-04-22T22:13:59.918Z,101094.75
2023-04-22T22:16:28.992Z,101093.02
2023-04-22T22:18:58.542Z,101096.77
2023-04-22T22:21:26.903Z,101095.88
2023-04-22T22:23:55.200Z,101095.71
2023-04-22T22:26:23.961Z,101091.09
2023-04-22T22:28:52.373Z,101092.10
2023-04-22T22:31:21.828Z,101089.30
2023-04-22T22:33:50.363Z,101093.44
2023-04-22T22:36:19.198Z,101092.23
2023-04-22T22:38:47.644Z,101094.71
2023-04-22T22:41:15.933Z,101094.66
2023-04-22T22:43:44.212Z,101094.77
2023-04-22T22:46:12.733Z,101091.69
2023-04-22T22:48:41.292Z,101093.88
2023-04-22T22:51:10.591Z,101093.69
2023-04-22T22:53:41.385Z,101089.78
2023-04-22T22:56:10.430Z,101090.10
2023-04-22T22:58:40.958Z,101084.03
2023-04-22T23:01:09.270Z,101086.19
2023-04-22T23:03:38.480Z,101087.57
2023-04-22T23:06:07.865Z,101085.82
2023-04-22T23:08:36.242Z,101084.03
2023-04-22T23:11:04.729Z,101088.10
2023-04-22T23:13:33.059Z,101087.23
2023-04-22T23:16:01.917Z,101090.45
2023-04-22T23:18:32.069Z,101091.55
2023-04-22T23:21:01.393Z,101089.52
2023-04-22T23:23:30.798Z,101088.58
2023-04-22T23:26:00.988Z,101090.22
2023-04-22T23:28:30.240Z,101090.64
2023-04-22T23:31:00.917Z,101094.77
2023-04-22T23:33:31.308Z,101099.01
2023-04-22T23:36:01.487Z,101098.59
2023-04-22T23:38:30.169Z,101101.32
2023-04-22T23:40:59.060Z,101101.61
2023-04-22T23:43:27.341Z,101103.40
2023-04-22T23:45:56.118Z,101102.97
2023-04-22T23:48:24.630Z,101100.66
2023-04-22T23:50:53.003Z,101099.44
2023-04-22T23:53:21.495Z,101101.01
2023-04-22T23:55:50.452Z,101104.92
2023-04-22T23:58:18.984Z,101102.15
